LFSG METAR and TAF | Updated Today

LFSG METAR

Épinal-Mirecourt Airport

Observation time: 10 min. ago

LFSG 061900Z AUTO 04006KT 9999 SCT035 BKN041 01/M01 Q1035

Need help? Read our tutorial on how to read METARs or read the parsed version below.

Épinal-Mirecourt Airport (LFSG) METAR

  • Weather conditions on Mon, 06 Feb 2023 19:00:00 +0000 (10 min. ago):
  • Present conditions: Dry
  • Clouds: Scattered at 1067 meters; broken sky at 1250 meters
  • Visibility: Greater than 10 km
  • Wind: 40 degrees at 6 knots
  • Temperature: 1 celsius
  • Dew point: -1 celsius
  • Pressure: 1035 millibars
  • Remarks: None


Useful to know...